Evanston, Indiana
Current Conditions -  °F | °C
As of 4:35 PM on Friday 19 Dec 2014 (Local Time) from KHNB Reporting Station
Clear Clear  
Wind Chill: 24°   Ceiling: Unl
Heat Index: 30°   Visibility: 10mi
Dew Point: 21°   Wind: 6mph
Humidity: 69%   Direction: 30°NNE
Pressure: 30.28"   Gusts: NA
Location:  38.04°N, 86.84°W
Report Text: KHNB 192235Z AUTO 03005KT 10SM CLR M01/M06 A3028 RMK AO1
Loading
Personal Weather Stations






























Interactive Weather Map New forecast layout! Learn more

10-Day Weather Forecast

Advertisements
Track Severe Weather on mobile